Time;durP1;ratioP1;P1;durP2;ratioP2;P2;SDS_P1;SDS_P2;PMS_P1;PMS_P2;Temp;Humidity;BMP_temperature;BMP_pressure;BME280_temperature;BME280_humidity;BME280_pressure;Samples;Min_cycle;Max_cycle;Signal;HPM_P1;HPM_P2
2022/09/23 00:01:06;;;;;;;3.80;2.08;;;;;;;;;;4362212;32;67482;-60
2022/09/23 00:03:53;;;;;;;3.08;1.70;;;;;;;;;;4384114;32;71756;-60
2022/09/23 00:06:40;;;;;;;3.72;2.30;;;;;;;;;;4373473;32;66068;-61
2022/09/23 00:09:27;;;;;;;5.25;2.08;;;;;;;;;;4373071;32;66380;-60
2022/09/23 00:12:13;;;;;;;2.65;1.90;;;;;;;;;;4385080;32;66630;-60
2022/09/23 00:15:00;;;;;;;;;;;;;;;;;;4373469;32;71740;-60
2022/09/23 00:17:47;;;;;;;3.10;2.03;;;;;;;;;;4362061;32;63319;-60
2022/09/23 00:20:35;;;;;;;4.00;1.80;;;;;;;;;;4383351;32;66684;-60
2022/09/23 00:23:21;;;;;;;4.25;2.12;;;;;;;;;;4384159;32;59144;-60
2022/09/23 00:26:10;;;;;;;5.32;1.85;;;;;;;;;;4372767;32;70695;-59
2022/09/23 00:28:57;;;;;;;2.28;1.83;;;;;;;;;;4361556;32;68974;-60
2022/09/23 00:31:44;;;;;;;;;;;;;;;;;;4384634;32;66767;-60
2022/09/23 00:34:30;;;;;;;3.00;2.00;;;;;;;;;;4384114;32;71914;-60
2022/09/23 00:37:17;;;;;;;2.30;1.85;;;;;;;;;;4383542;32;69473;-62
2022/09/23 00:40:05;;;;;;;5.35;1.90;;;;;;;;;;4373075;32;69762;-60
2022/09/23 00:42:51;;;;;;;5.10;2.33;;;;;;;;;;4383569;32;66761;-60
2022/09/23 00:45:38;;;;;;;;;;;;;;;;;;4373079;32;71010;-60
2022/09/23 00:48:25;;;;;;;2.90;2.07;;;;;;;;;;4373086;32;66136;-60
2022/09/23 00:51:16;;;;;;;2.25;1.75;;;;;;;;;;4361806;32;68170;-60
2022/09/23 00:54:05;;;;;;;2.72;1.87;;;;;;;;;;4383563;32;59080;-60
2022/09/23 00:56:51;;;;;;;3.47;1.90;;;;;;;;;;4383231;32;70715;-60
2022/09/23 00:59:38;;;;;;;3.20;1.87;;;;;;;;;;4372285;32;68403;-60
2022/09/23 01:02:27;;;;;;;3.00;2.03;;;;;;;;;;4372762;32;67821;-60
2022/09/23 01:05:14;;;;;;;3.08;2.05;;;;;;;;;;4373028;32;60235;-60
2022/09/23 01:08:02;;;;;;;3.95;2.05;;;;;;;;;;4372086;32;71583;-60
2022/09/23 01:11:18;;;;;;;4.03;2.50;;;;;;;;;;4372669;32;68336;-60
2022/09/23 01:14:19;;;;;;;5.57;3.05;;;;;;;;;;4361929;32;66819;-60
2022/09/23 01:17:26;;;;;;;6.05;2.60;;;;;;;;;;4383048;32;70716;-60
2022/09/23 01:20:23;;;;;;;4.97;2.53;;;;;;;;;;4384090;32;65577;-60
2022/09/23 01:23:35;;;;;;;2.92;1.90;;;;;;;;;;4383117;32;68002;-59
2022/09/23 01:26:55;;;;;;;3.85;2.25;;;;;;;;;;4383697;32;67527;-61
2022/09/23 01:29:45;;;;;;;4.87;2.10;;;;;;;;;;4383859;32;71966;-60
2022/09/23 01:32:34;;;;;;;3.70;2.00;;;;;;;;;;4372069;32;66196;-60
2022/09/23 01:35:50;;;;;;;6.75;2.28;;;;;;;;;;4372176;32;67902;-61
2022/09/23 01:38:47;;;;;;;2.97;2.00;;;;;;;;;;4348402;32;59047;-60
2022/09/23 01:41:46;;;;;;;3.53;2.15;;;;;;;;;;4371599;32;68945;-61
2022/09/23 01:44:41;;;;;;;5.07;2.42;;;;;;;;;;3847532;37;43837;-60
2022/09/23 01:47:44;;;;;;;5.30;2.55;;;;;;;;;;4388837;32;59142;-59
2022/09/23 01:54:02;;;;;;;3.95;2.17;;;;;;;;;;4409947;32;69680;-60
2022/09/23 01:57:14;;;;;;;4.35;2.25;;;;;;;;;;4388220;32;66759;-60
2022/09/23 02:00:11;;;;;;;4.78;2.37;;;;;;;;;;4411234;32;71630;-60
2022/09/23 02:03:03;;;;;;;5.20;2.53;;;;;;;;;;4391919;32;65953;-60
2022/09/23 02:05:55;;;;;;;3.78;2.35;;;;;;;;;;4400747;32;67801;-61
2022/09/23 02:08:51;;;;;;;4.20;2.28;;;;;;;;;;4387574;32;60781;-60
2022/09/23 02:11:44;;;;;;;8.43;2.37;;;;;;;;;;4409235;32;70488;-61
2022/09/23 02:14:59;;;;;;;6.37;2.50;;;;;;;;;;4409374;32;64929;-60
2022/09/23 02:17:53;;;;;;;3.67;2.42;;;;;;;;;;4409449;32;67563;-60
2022/09/23 02:20:40;;;;;;;5.68;2.10;;;;;;;;;;4409583;32;59745;-61
2022/09/23 02:23:43;;;;;;;4.03;2.05;;;;;;;;;;4409200;32;69401;-59
2022/09/23 02:26:32;;;;;;;4.05;2.67;;;;;;;;;;4409116;32;69317;-61
2022/09/23 02:29:21;;;;;;;4.35;2.17;;;;;;;;;;4398643;32;67677;-60
2022/09/23 02:32:22;;;;;;;3.80;2.15;;;;;;;;;;4409034;32;71743;-60
2022/09/23 02:35:19;;;;;;;5.70;2.35;;;;;;;;;;4409357;32;65917;-59
2022/09/23 02:38:08;;;;;;;3.50;2.12;;;;;;;;;;4398274;32;69395;-60
2022/09/23 02:41:40;;;;;;;3.75;1.98;;;;;;;;;;4410325;32;67470;-59
2022/09/23 02:44:27;;;;;;;3.85;2.50;;;;;;;;;;4388870;32;72136;-62
2022/09/23 02:47:15;;;;;;;5.72;2.20;;;;;;;;;;4409194;32;66055;-61
2022/09/23 02:50:02;;;;;;;7.12;2.20;;;;;;;;;;4398696;32;67520;-60
2022/09/23 02:52:49;;;;;;;9.43;2.40;;;;;;;;;;4398558;32;60151;-60
2022/09/23 02:55:35;;;;;;;4.62;2.47;;;;;;;;;;4378178;32;70414;-60
2022/09/23 02:58:23;;;;;;;7.60;2.47;;;;;;;;;;4388230;32;67921;-60
2022/09/23 03:01:33;;;;;;;4.95;2.37;;;;;;;;;;4388343;32;67686;-60
2022/09/23 03:04:39;;;;;;;5.93;2.17;;;;;;;;;;4403987;32;59967;-58
2022/09/23 03:07:47;;;;;;;5.60;2.33;;;;;;;;;;4387218;32;70291;-60
2022/09/23 03:10:59;;;;;;;4.25;2.22;;;;;;;;;;4387507;32;69318;-61
2022/09/23 03:13:52;;;;;;;4.90;2.45;;;;;;;;;;4387308;32;68233;-60
2022/09/23 03:16:59;;;;;;;3.95;1.98;;;;;;;;;;4376490;32;72669;-60
2022/09/23 03:19:54;;;;;;;5.15;2.08;;;;;;;;;;4376473;32;66845;-60
2022/09/23 03:22:48;;;;;;;4.78;2.22;;;;;;;;;;4398830;32;68259;-60
2022/09/23 03:25:38;;;;;;;4.20;2.20;;;;;;;;;;4398758;32;60001;-60
2022/09/23 03:28:25;;;;;;;5.10;2.50;;;;;;;;;;4398182;32;70518;-59
2022/09/23 03:31:13;;;;;;;5.82;2.90;;;;;;;;;;4387563;32;65850;-61
2022/09/23 03:34:02;;;;;;;4.50;2.55;;;;;;;;;;4387491;32;66320;-61
2022/09/23 03:37:16;;;;;;;7.50;2.83;;;;;;;;;;4398399;32;59113;-61
2022/09/23 03:40:25;;;;;;;4.50;2.42;;;;;;;;;;4398000;32;70186;-60
2022/09/23 03:43:12;;;;;;;5.97;2.60;;;;;;;;;;4397092;32;69877;-60
2022/09/23 03:46:00;;;;;;;6.07;2.72;;;;;;;;;;4397967;32;67612;-60
2022/09/23 03:48:48;;;;;;;3.75;2.25;;;;;;;;;;4376585;32;72702;-60
2022/09/23 03:51:34;;;;;;;7.85;2.78;;;;;;;;;;4376687;32;65593;-60
2022/09/23 03:54:21;;;;;;;7.15;2.70;;;;;;;;;;4387288;32;67424;-60
2022/09/23 03:57:08;;;;;;;5.00;2.45;;;;;;;;;;4387432;32;67561;-60
2022/09/23 03:59:55;;;;;;;4.28;2.78;;;;;;;;;;4397772;32;70876;-60
2022/09/23 04:02:41;;;;;;;;;;;;;;;;;;4376813;32;66703;-61
2022/09/23 04:05:28;;;;;;;6.70;2.58;;;;;;;;;;4397537;32;67633;-60
2022/09/23 04:08:15;;;;;;;6.60;2.58;;;;;;;;;;4365604;32;59872;-60
2022/09/23 04:11:03;;;;;;;7.03;2.90;;;;;;;;;;4376475;32;70212;-60
2022/09/23 04:13:49;;;;;;;10.90;3.25;;;;;;;;;;4397770;32;69380;-59
2022/09/23 04:16:36;;;;;;;9.18;3.05;;;;;;;;;;4387345;32;67798;-60
2022/09/23 04:19:23;;;;;;;4.05;2.47;;;;;;;;;;4376837;32;60258;-60
2022/09/23 04:22:10;;;;;;;;;;;;;;;;;;4376187;32;71195;-60
2022/09/23 04:24:56;;;;;;;4.80;2.40;;;;;;;;;;4387147;32;69131;-61
2022/09/23 04:27:43;;;;;;;3.30;2.20;;;;;;;;;;4397554;32;66879;-60
2022/09/23 04:30:30;;;;;;;;;;;;;;;;;;4376605;32;71903;-60
2022/09/23 04:33:17;;;;;;;4.68;2.47;;;;;;;;;;4397850;32;65212;-60
2022/09/23 04:36:04;;;;;;;3.87;2.60;;;;;;;;;;4386835;32;67435;-60
2022/09/23 04:38:51;;;;;;;4.12;2.37;;;;;;;;;;4387278;32;59239;-61
2022/09/23 04:41:38;;;;;;;4.97;2.80;;;;;;;;;;4386682;32;70490;-59
2022/09/23 04:44:26;;;;;;;5.47;3.05;;;;;;;;;;4386428;32;64945;-60
2022/09/23 04:47:13;;;;;;;6.20;3.20;;;;;;;;;;4375227;32;68229;-59
2022/09/23 04:49:59;;;;;;;7.82;2.87;;;;;;;;;;4365153;32;60981;-60
2022/09/23 04:52:46;;;;;;;4.70;2.70;;;;;;;;;;4375824;32;69478;-60
2022/09/23 04:55:32;;;;;;;;;;;;;;;;;;4386409;32;67691;-60
2022/09/23 04:58:21;;;;;;;4.37;3.00;;;;;;;;;;4397463;32;68028;-60
2022/09/23 05:01:13;;;;;;;6.43;2.70;;;;;;;;;;4397018;32;72580;-61
2022/09/23 05:04:02;;;;;;;8.77;3.25;;;;;;;;;;4397160;32;64862;-61
2022/09/23 05:06:48;;;;;;;6.15;2.70;;;;;;;;;;4398610;32;67652;-60
2022/09/23 05:09:35;;;;;;;5.45;2.40;;;;;;;;;;4397126;32;66721;-60
2022/09/23 05:12:22;;;;;;;4.82;2.40;;;;;;;;;;4386370;32;71629;-60
2022/09/23 05:15:09;;;;;;;3.92;2.37;;;;;;;;;;4386347;32;64895;-60
2022/09/23 05:18:01;;;;;;;5.30;2.75;;;;;;;;;;4386087;32;67651;-61
2022/09/23 05:20:54;;;;;;;6.78;2.92;;;;;;;;;;4375453;32;59760;-61
2022/09/23 05:23:41;;;;;;;4.90;2.40;;;;;;;;;;4386049;32;70574;-59
2022/09/23 05:26:30;;;;;;;4.53;2.58;;;;;;;;;;4386079;32;69424;-61
2022/09/23 05:29:16;;;;;;;6.40;2.62;;;;;;;;;;4398086;32;66617;-60
2022/09/23 05:32:03;;;;;;;5.20;2.53;;;;;;;;;;4386338;32;71815;-61
2022/09/23 05:34:49;;;;;;;4.00;1.77;;;;;;;;;;4385516;32;71627;-59
2022/09/23 05:37:37;;;;;;;3.53;2.10;;;;;;;;;;4375285;32;69498;-60
2022/09/23 05:40:23;;;;;;;3.47;2.25;;;;;;;;;;4396666;32;67966;-60
2022/09/23 05:43:11;;;;;;;9.18;2.37;;;;;;;;;;4396324;32;71623;-60
2022/09/23 05:46:16;;;;;;;4.00;2.33;;;;;;;;;;4386189;32;64849;-59
2022/09/23 05:49:04;;;;;;;5.12;2.37;;;;;;;;;;4385384;32;68039;-59
2022/09/23 05:51:51;;;;;;;7.90;2.60;;;;;;;;;;4385824;32;59942;-60
2022/09/23 05:54:38;;;;;;;3.47;2.00;;;;;;;;;;4375251;32;70401;-60
2022/09/23 05:57:25;;;;;;;2.90;1.98;;;;;;;;;;4396889;32;68300;-60
2022/09/23 06:00:12;;;;;;;4.45;2.20;;;;;;;;;;4386424;32;67584;-59
2022/09/23 06:02:59;;;;;;;4.47;1.98;;;;;;;;;;4386395;32;59167;-60
2022/09/23 06:05:47;;;;;;;4.32;2.42;;;;;;;;;;4385952;32;69555;-59
2022/09/23 06:08:34;;;;;;;3.75;2.60;;;;;;;;;;4385287;32;69050;-60
2022/09/23 06:11:21;;;;;;;3.50;2.35;;;;;;;;;;4375135;32;68045;-59
2022/09/23 06:14:11;;;;;;;3.25;2.17;;;;;;;;;;4385613;32;71024;-60
2022/09/23 06:16:58;;;;;;;4.37;2.33;;;;;;;;;;4385849;32;65817;-59
2022/09/23 06:19:45;;;;;;;4.43;2.05;;;;;;;;;;4385727;32;67428;-60
2022/09/23 06:22:32;;;;;;;;;;;;;;;;;;4375507;32;59855;-58
2022/09/23 06:25:20;;;;;;;5.95;2.50;;;;;;;;;;4396398;32;72025;-59
2022/09/23 06:28:11;;;;;;;6.87;2.22;;;;;;;;;;4385097;32;65755;-59
2022/09/23 06:31:02;;;;;;;5.90;2.33;;;;;;;;;;4377186;32;68031;-59
2022/09/23 06:33:49;;;;;;;2.75;2.10;;;;;;;;;;4399118;32;59450;-59
2022/09/23 06:36:36;;;;;;;3.17;2.35;;;;;;;;;;4398580;32;70646;-58
2022/09/23 06:39:23;;;;;;;;;;;;;;;;;;4388416;32;68521;-59
2022/09/23 06:42:10;;;;;;;3.67;2.05;;;;;;;;;;4398491;32;66850;-58
2022/09/23 06:44:58;;;;;;;;;;;;;;;;;;4388559;32;71735;-61
2022/09/23 06:47:45;;;;;;;4.45;2.58;;;;;;;;;;4398667;32;69865;-60
2022/09/23 06:50:32;;;;;;;4.28;2.50;;;;;;;;;;4398441;32;69406;-60
2022/09/23 06:53:22;;;;;;;3.53;2.28;;;;;;;;;;4387827;32;67888;-60
2022/09/23 06:56:10;;;;;;;3.70;2.35;;;;;;;;;;4387417;32;72354;-59
2022/09/23 06:58:56;;;;;;;4.87;2.58;;;;;;;;;;4398490;32;65790;-60
2022/09/23 07:01:44;;;;;;;;;;;;;;;;;;4387894;32;67436;-60
2022/09/23 07:04:31;;;;;;;4.70;2.67;;;;;;;;;;4398935;32;59458;-60
2022/09/23 07:07:18;;;;;;;;;;;;;;;;;;4377445;32;70421;-59
2022/09/23 07:10:06;;;;;;;;;;;;;;;;;;4377109;32;70446;-59
2022/09/23 07:12:52;;;;;;;5.25;2.47;;;;;;;;;;4376758;32;66456;-59
2022/09/23 07:15:39;;;;;;;5.85;2.90;;;;;;;;;;4377324;32;60061;-59
2022/09/23 07:18:26;;;;;;;;;;;;;;;;;;4398446;32;70364;-59
2022/09/23 07:21:16;;;;;;;3.25;2.40;;;;;;;;;;4398570;32;69660;-59
2022/09/23 07:24:02;;;;;;;6.80;2.40;;;;;;;;;;4387430;32;67904;-59
2022/09/23 07:26:49;;;;;;;5.95;2.37;;;;;;;;;;4376761;32;72221;-60
2022/09/23 07:29:35;;;;;;;;;;;;;;;;;;4387544;32;65085;-59
2022/09/23 07:32:23;;;;;;;4.53;2.45;;;;;;;;;;4386824;32;67832;-59
2022/09/23 07:35:10;;;;;;;5.90;2.40;;;;;;;;;;4387350;32;60110;-60
2022/09/23 07:37:57;;;;;;;2.72;2.15;;;;;;;;;;4387331;32;71997;-59
2022/09/23 07:40:43;;;;;;;;;;;;;;;;;;4387516;32;66392;-59
2022/09/23 07:43:33;;;;;;;2.80;2.37;;;;;;;;;;4399210;32;67168;-60
2022/09/23 07:46:20;;;;;;;6.43;2.40;;;;;;;;;;4376662;32;59824;-59
2022/09/23 07:49:06;;;;;;;3.60;2.40;;;;;;;;;;4386406;32;70967;-60
2022/09/23 07:51:53;;;;;;;;;;;;;;;;;;4387714;32;69203;-59
2022/09/23 07:54:39;;;;;;;4.25;2.33;;;;;;;;;;4377546;32;67482;-60
2022/09/23 07:57:26;;;;;;;;;;;;;;;;;;4386456;32;72225;-58
2022/09/23 08:00:13;;;;;;;6.20;2.58;;;;;;;;;;4399405;32;65207;-58
2022/09/23 08:03:00;;;;;;;4.72;2.45;;;;;;;;;;4365138;32;68951;-59
2022/09/23 08:05:47;;;;;;;;;;;;;;;;;;4387152;32;67798;-59
2022/09/23 08:08:34;;;;;;;3.65;2.33;;;;;;;;;;4386998;32;71605;-58
2022/09/23 08:11:22;;;;;;;4.05;1.98;;;;;;;;;;4386991;32;65693;-60
2022/09/23 08:14:12;;;;;;;3.37;2.58;;;;;;;;;;4376270;32;68455;-60
2022/09/23 08:16:58;;;;;;;5.37;2.17;;;;;;;;;;4376362;32;60025;-59
2022/09/23 08:19:46;;;;;;;3.28;2.12;;;;;;;;;;4386194;32;70281;-59
2022/09/23 08:22:32;;;;;;;;;;;;;;;;;;4375687;32;70103;-58
2022/09/23 08:25:19;;;;;;;4.35;2.42;;;;;;;;;;4397664;32;68057;-59
2022/09/23 08:28:05;;;;;;;4.07;2.25;;;;;;;;;;4397750;32;60281;-59
2022/09/23 08:30:52;;;;;;;;;;;;;;;;;;4387203;32;70642;-59
2022/09/23 08:33:39;;;;;;;4.37;2.50;;;;;;;;;;4398835;32;68462;-60
2022/09/23 08:36:26;;;;;;;3.03;2.12;;;;;;;;;;4397562;32;67786;-59
2022/09/23 08:39:15;;;;;;;4.25;2.20;;;;;;;;;;4386649;32;70874;-60
2022/09/23 08:42:27;;;;;;;4.05;2.35;;;;;;;;;;4386016;32;67233;-59
2022/09/23 08:45:24;;;;;;;3.83;2.10;;;;;;;;;;4397201;32;68144;-60
2022/09/23 08:48:14;;;;;;;6.57;2.50;;;;;;;;;;4397930;32;59179;-59
2022/09/23 08:51:06;;;;;;;3.45;2.17;;;;;;;;;;4386518;32;70822;-58
2022/09/23 08:53:53;;;;;;;4.37;2.12;;;;;;;;;;4386091;32;66196;-59
2022/09/23 08:56:42;;;;;;;5.18;2.30;;;;;;;;;;4364458;32;69075;-59
2022/09/23 08:59:42;;;;;;;10.43;3.37;;;;;;;;;;4397417;32;59385;-60
2022/09/23 09:02:29;;;;;;;3.10;2.15;;;;;;;;;;4396694;32;69947;-59
2022/09/23 09:05:22;;;;;;;3.97;2.78;;;;;;;;;;4375617;32;68549;-60
2022/09/23 09:08:10;;;;;;;3.92;2.60;;;;;;;;;;4386528;32;67710;-60
2022/09/23 09:10:58;;;;;;;3.60;2.33;;;;;;;;;;4385933;32;71960;-61
2022/09/23 09:14:03;;;;;;;5.47;2.50;;;;;;;;;;4375584;32;66856;-60
2022/09/23 09:16:55;;;;;;;3.28;2.20;;;;;;;;;;4396672;32;68127;-60
2022/09/23 09:20:03;;;;;;;3.50;2.45;;;;;;;;;;4385997;32;67579;-59
2022/09/23 09:22:58;;;;;;;2.85;2.05;;;;;;;;;;4385638;32;72318;-59
2022/09/23 09:25:50;;;;;;;3.78;2.22;;;;;;;;;;4397844;32;66259;-61
2022/09/23 09:28:57;;;;;;;3.47;2.40;;;;;;;;;;4386044;32;67701;-60
2022/09/23 09:31:44;;;;;;;4.47;2.50;;;;;;;;;;4386108;32;59328;-59
2022/09/23 09:34:46;;;;;;;5.43;2.37;;;;;;;;;;4375315;32;70479;-60
2022/09/23 09:37:45;;;;;;;5.18;2.22;;;;;;;;;;4396605;32;68644;-60
2022/09/23 09:40:33;;;;;;;7.10;2.28;;;;;;;;;;4396040;32;68484;-60
2022/09/23 09:43:22;;;;;;;5.82;2.40;;;;;;;;;;4374684;32;60501;-60
2022/09/23 09:47:00;;;;;;;5.50;2.72;;;;;;;;;;4385410;32;70488;-60
2022/09/23 09:49:57;;;;;;;4.70;2.35;;;;;;;;;;4371265;32;68489;-60
2022/09/23 09:52:45;;;;;;;5.60;2.65;;;;;;;;;;4385183;32;67991;-60
2022/09/23 09:55:31;;;;;;;;;;;;;;;;;;4375614;32;70918;-59
2022/09/23 09:58:18;;;;;;;3.47;2.50;;;;;;;;;;4386142;32;66024;-60
2022/09/23 10:01:04;;;;;;;;;;;;;;;;;;4386132;32;66944;-59
2022/09/23 10:03:53;;;;;;;5.07;2.55;;;;;;;;;;4397001;32;58705;-61
2022/09/23 10:06:40;;;;;;;4.47;2.50;;;;;;;;;;4377571;32;69576;-60
2022/09/23 10:09:33;;;;;;;3.53;2.75;;;;;;;;;;4388588;32;66349;-60
2022/09/23 10:12:22;;;;;;;4.40;2.78;;;;;;;;;;4388517;32;67070;-60
2022/09/23 10:15:27;;;;;;;6.10;2.67;;;;;;;;;;4388028;32;60677;-60
2022/09/23 10:18:37;;;;;;;5.90;2.72;;;;;;;;;;4388105;32;70582;-60
2022/09/23 10:21:27;;;;;;;5.53;2.83;;;;;;;;;;4398927;32;69186;-60
2022/09/23 10:24:21;;;;;;;5.43;2.60;;;;;;;;;;4377710;32;68274;-60
2022/09/23 10:27:10;;;;;;;7.43;2.78;;;;;;;;;;4398833;32;71910;-60
2022/09/23 10:29:59;;;;;;;5.80;2.85;;;;;;;;;;4398943;32;65759;-61
2022/09/23 10:32:46;;;;;;;4.62;2.42;;;;;;;;;;4399205;32;68026;-61
2022/09/23 10:35:33;;;;;;;;;;;;;;;;;;4377974;32;66801;-59
2022/09/23 10:38:19;;;;;;;5.07;3.03;;;;;;;;;;4398712;32;72004;-60
2022/09/23 10:48:03;;;;;;;6.45;2.85;;;;;;;;;;4400099;32;59180;-59
2022/09/23 10:50:51;;;;;;;5.82;2.75;;;;;;;;;;4387671;32;69085;-61
2022/09/23 10:53:48;;;;;;;6.70;3.10;;;;;;;;;;4398699;32;68554;-60
2022/09/23 10:56:42;;;;;;;6.43;2.42;;;;;;;;;;4398540;32;66774;-60
2022/09/23 10:59:47;;;;;;;7.25;2.45;;;;;;;;;;4388104;32;71853;-60
2022/09/23 11:02:50;;;;;;;3.78;2.60;;;;;;;;;;4398405;32;70122;-60
2022/09/23 11:05:48;;;;;;;7.07;2.70;;;;;;;;;;4398103;32;68479;-59
2022/09/23 11:08:56;;;;;;;3.25;2.28;;;;;;;;;;4398592;32;66597;-59
2022/09/23 11:12:21;;;;;;;3.53;2.33;;;;;;;;;;4397934;32;71743;-61
2022/09/23 11:15:15;;;;;;;5.05;2.40;;;;;;;;;;4387587;32;64664;-61
2022/09/23 11:18:28;;;;;;;3.12;2.30;;;;;;;;;;4398262;32;66840;-60
2022/09/23 11:21:39;;;;;;;6.62;2.72;;;;;;;;;;4398923;32;60384;-60
2022/09/23 11:24:48;;;;;;;4.68;2.50;;;;;;;;;;4400133;32;70696;-59
2022/09/23 11:27:41;;;;;;;6.50;2.65;;;;;;;;;;4398234;32;69310;-60
2022/09/23 11:30:58;;;;;;;4.00;2.05;;;;;;;;;;4375825;32;68090;-60
2022/09/23 11:34:06;;;;;;;3.65;2.50;;;;;;;;;;4399796;32;60217;-60
2022/09/23 11:36:56;;;;;;;5.45;2.80;;;;;;;;;;4397841;32;70467;-60
2022/09/23 11:39:51;;;;;;;2.72;2.12;;;;;;;;;;4387395;32;68971;-60
2022/09/23 11:43:13;;;;;;;4.55;2.97;;;;;;;;;;4386848;32;67716;-60
2022/09/23 11:46:22;;;;;;;6.60;2.67;;;;;;;;;;4399116;32;70756;-59
2022/09/23 11:49:32;;;;;;;4.57;2.30;;;;;;;;;;4386914;32;66111;-61
2022/09/23 11:53:07;;;;;;;5.53;2.80;;;;;;;;;;4386679;32;69107;-60
2022/09/23 11:56:25;;;;;;;3.22;2.60;;;;;;;;;;4325973;32;67639;-60
2022/09/23 11:59:24;;;;;;;3.70;2.55;;;;;;;;;;4336078;32;71771;-60
2022/09/23 12:02:21;;;;;;;4.47;2.40;;;;;;;;;;4399234;32;66063;-60
2022/09/23 12:05:12;;;;;;;;;;;;;;;;;;4387364;32;67875;-60
2022/09/23 12:08:33;;;;;;;6.65;2.40;;;;;;;;;;4387296;32;59089;-60
2022/09/23 12:11:44;;;;;;;3.97;2.87;;;;;;;;;;4397619;32;68771;-60
2022/09/23 12:14:56;;;;;;;5.28;2.30;;;;;;;;;;4376194;32;69443;-61
2022/09/23 12:17:45;;;;;;;4.30;2.55;;;;;;;;;;4386923;32;67838;-60
2022/09/23 12:20:50;;;;;;;5.32;2.62;;;;;;;;;;4397792;32;71937;-60
2022/09/23 12:23:49;;;;;;;5.03;2.70;;;;;;;;;;4398632;32;70513;-60
2022/09/23 12:26:37;;;;;;;6.53;2.40;;;;;;;;;;4375604;32;69381;-60
2022/09/23 12:29:27;;;;;;;7.75;2.87;;;;;;;;;;4376100;32;67352;-61
2022/09/23 12:32:18;;;;;;;7.20;2.75;;;;;;;;;;4397151;32;71032;-60
2022/09/23 12:35:06;;;;;;;3.33;2.30;;;;;;;;;;4386715;32;64974;-61
2022/09/23 12:37:53;;;;;;;4.60;2.47;;;;;;;;;;4376150;32;66942;-61
2022/09/23 12:40:43;;;;;;;6.65;2.78;;;;;;;;;;4376841;32;60348;-60
2022/09/23 12:43:34;;;;;;;4.87;2.92;;;;;;;;;;4386390;32;69617;-60
2022/09/23 12:46:26;;;;;;;4.80;2.70;;;;;;;;;;4386667;32;68412;-60
2022/09/23 12:49:36;;;;;;;4.40;2.70;;;;;;;;;;4386845;32;67841;-60
2022/09/23 12:52:26;;;;;;;5.80;3.10;;;;;;;;;;4397626;32;59203;-60
2022/09/23 12:55:25;;;;;;;7.95;2.92;;;;;;;;;;4385899;32;71198;-61
2022/09/23 12:58:38;;;;;;;4.25;3.00;;;;;;;;;;4398296;32;68431;-59
2022/09/23 13:01:25;;;;;;;4.53;2.75;;;;;;;;;;4386420;32;67632;-59
2022/09/23 13:07:50;;;;;;;5.80;2.70;;;;;;;;;;4387829;32;65907;-60
2022/09/23 13:10:45;;;;;;;3.95;2.40;;;;;;;;;;4386135;32;67883;-60
2022/09/23 13:13:35;;;;;;;7.93;2.67;;;;;;;;;;4386765;32;60243;-59
2022/09/23 13:16:29;;;;;;;6.70;2.95;;;;;;;;;;4397113;32;71656;-60
2022/09/23 13:19:27;;;;;;;6.10;2.97;;;;;;;;;;4375508;32;65920;-59
2022/09/23 13:22:58;;;;;;;7.80;2.72;;;;;;;;;;4397090;32;68083;-60
2022/09/23 13:25:46;;;;;;;5.47;2.75;;;;;;;;;;4386840;32;60069;-61
2022/09/23 13:28:37;;;;;;;7.65;3.03;;;;;;;;;;4386179;32;69479;-59
2022/09/23 13:31:24;;;;;;;5.18;2.65;;;;;;;;;;4396647;32;69314;-61
2022/09/23 13:34:13;;;;;;;4.80;3.05;;;;;;;;;;4390311;32;66681;-59
2022/09/23 13:37:15;;;;;;;8.13;2.90;;;;;;;;;;4392793;32;71057;-60
2022/09/23 13:40:19;;;;;;;7.32;2.67;;;;;;;;;;4400087;32;65243;-61
2022/09/23 13:43:11;;;;;;;4.95;2.45;;;;;;;;;;4375581;32;69659;-60
2022/09/23 13:45:59;;;;;;;8.88;2.83;;;;;;;;;;4396651;32;68048;-61
2022/09/23 13:48:48;;;;;;;4.68;2.70;;;;;;;;;;4385221;32;72639;-61
2022/09/23 13:51:35;;;;;;;4.28;2.65;;;;;;;;;;4385660;32;66211;-61
2022/09/23 13:54:35;;;;;;;6.87;2.75;;;;;;;;;;4386287;32;68133;-61
2022/09/23 13:57:28;;;;;;;8.98;2.87;;;;;;;;;;4385799;32;60656;-61
2022/09/23 14:00:22;;;;;;;5.00;3.00;;;;;;;;;;4385659;32;70286;-61
2022/09/23 14:03:23;;;;;;;7.53;2.75;;;;;;;;;;4396403;32;67976;-62
2022/09/23 14:06:13;;;;;;;4.60;2.55;;;;;;;;;;4385716;32;67724;-61
2022/09/23 14:09:01;;;;;;;5.65;2.80;;;;;;;;;;4375020;32;60965;-60
2022/09/23 14:11:50;;;;;;;6.78;2.90;;;;;;;;;;4385792;32;69536;-60
2022/09/23 14:14:39;;;;;;;5.93;2.78;;;;;;;;;;4396654;32;69148;-60
2022/09/23 14:17:25;;;;;;;6.40;3.10;;;;;;;;;;4385580;32;67279;-60
2022/09/23 14:20:15;;;;;;;6.55;3.17;;;;;;;;;;4374803;32;71274;-60
2022/09/23 14:23:06;;;;;;;6.03;2.90;;;;;;;;;;4385899;32;65002;-60
2022/09/23 14:25:53;;;;;;;4.57;3.25;;;;;;;;;;4396474;32;67030;-60
2022/09/23 14:28:40;;;;;;;4.70;3.12;;;;;;;;;;4386157;32;59053;-60
2022/09/23 14:31:28;;;;;;;4.37;2.78;;;;;;;;;;4385474;32;71814;-61
2022/09/23 14:34:53;;;;;;;4.53;2.58;;;;;;;;;;4375235;32;64936;-61
2022/09/23 14:41:17;;;;;;;5.75;2.65;;;;;;;;;;4332156;32;59740;-60
2022/09/23 14:44:05;;;;;;;4.40;2.70;;;;;;;;;;4396053;32;70056;-61
2022/09/23 14:46:57;;;;;;;6.82;3.08;;;;;;;;;;4385387;32;69397;-60
2022/09/23 14:50:35;;;;;;;5.43;2.75;;;;;;;;;;4396158;32;67771;-59
2022/09/23 14:52:55;;;;;;;6.18;3.00;;;;;;;;;;4399069;32;71552;-60
2022/09/23 14:55:42;;;;;;;6.05;3.10;;;;;;;;;;4388195;32;66739;-60
2022/09/23 14:58:29;;;;;;;5.95;3.00;;;;;;;;;;4389170;32;69292;-60
2022/09/23 15:01:31;;;;;;;5.70;2.70;;;;;;;;;;4388330;32;66677;-60
2022/09/23 15:04:23;;;;;;;5.03;2.90;;;;;;;;;;4398597;32;70762;-61
2022/09/23 15:07:19;;;;;;;4.75;2.78;;;;;;;;;;4398313;32;65984;-61
2022/09/23 15:10:17;;;;;;;4.20;2.67;;;;;;;;;;4377000;32;67907;-59
2022/09/23 15:13:13;;;;;;;6.45;3.00;;;;;;;;;;4399018;32;60260;-60
2022/09/23 15:16:00;;;;;;;6.80;2.90;;;;;;;;;;4387802;32;69564;-60
2022/09/23 15:18:54;;;;;;;6.62;2.95;;;;;;;;;;4388111;32;69558;-60
2022/09/23 15:21:44;;;;;;;7.12;3.30;;;;;;;;;;4387301;32;66090;-60
2022/09/23 15:24:37;;;;;;;4.78;2.90;;;;;;;;;;4398981;32;59103;-60
2022/09/23 15:27:33;;;;;;;6.15;2.97;;;;;;;;;;4387740;32;70733;-61
2022/09/23 15:30:20;;;;;;;5.00;3.00;;;;;;;;;;4387857;32;68225;-60
2022/09/23 15:33:10;;;;;;;7.75;2.87;;;;;;;;;;4387920;32;67621;-61
2022/09/23 15:35:58;;;;;;;7.18;3.17;;;;;;;;;;4388752;32;71781;-59
2022/09/23 15:38:45;;;;;;;6.05;3.03;;;;;;;;;;4388078;32;66053;-59
2022/09/23 15:41:32;;;;;;;9.68;3.10;;;;;;;;;;4398865;32;67851;-60
2022/09/23 15:44:20;;;;;;;6.85;3.67;;;;;;;;;;4399084;32;60094;-61
2022/09/23 15:47:16;;;;;;;6.37;3.25;;;;;;;;;;4399738;32;70550;-60
2022/09/23 15:50:04;;;;;;;7.25;3.00;;;;;;;;;;4390133;32;67203;-60
2022/09/23 15:52:51;;;;;;;5.72;3.00;;;;;;;;;;4376732;32;65790;-62
2022/09/23 15:55:38;;;;;;;5.07;3.05;;;;;;;;;;4387899;32;60223;-60
2022/09/23 15:58:26;;;;;;;5.87;2.83;;;;;;;;;;4398312;32;70562;-62
2022/09/23 16:01:28;;;;;;;5.00;2.70;;;;;;;;;;4398219;32;69597;-62
2022/09/23 16:04:15;;;;;;;7.28;3.08;;;;;;;;;;4388049;32;67760;-61
2022/09/23 16:07:04;;;;;;;5.30;2.75;;;;;;;;;;4399517;32;71775;-61
2022/09/23 16:09:51;;;;;;;3.55;2.35;;;;;;;;;;4398434;32;65770;-61
2022/09/23 16:12:31;;;;;;;5.37;3.12;;;;;;;;;;3869389;36;43140;-61
2022/09/23 16:15:19;;;;;;;6.22;3.05;;;;;;;;;;4391282;32;59837;-61
2022/09/23 16:18:08;;;;;;;4.50;2.80;;;;;;;;;;4414564;32;70727;-60
2022/09/23 16:20:56;;;;;;;4.30;2.92;;;;;;;;;;4414807;32;69284;-60
2022/09/23 16:23:46;;;;;;;4.28;2.40;;;;;;;;;;4401256;32;67357;-60
2022/09/23 16:26:34;;;;;;;6.50;2.90;;;;;;;;;;4414955;32;70897;-61
2022/09/23 16:29:21;;;;;;;7.47;3.05;;;;;;;;;;4404294;32;66135;-61
2022/09/23 16:32:08;;;;;;;6.37;2.90;;;;;;;;;;4404541;32;66403;-61
2022/09/23 16:34:56;;;;;;;;;;;;;;;;;;4390913;32;60871;-62
2022/09/23 16:37:45;;;;;;;5.68;2.92;;;;;;;;;;4393365;32;71786;-61
2022/09/23 16:40:32;;;;;;;5.85;3.17;;;;;;;;;;4403956;32;65727;-59
2022/09/23 16:43:20;;;;;;;6.37;2.78;;;;;;;;;;4404146;32;67953;-60
2022/09/23 16:46:11;;;;;;;4.70;2.70;;;;;;;;;;4401925;32;60938;-61
2022/09/23 16:48:58;;;;;;;4.85;2.80;;;;;;;;;;4403389;32;70547;-62
2022/09/23 16:51:44;;;;;;;6.87;3.53;;;;;;;;;;4404457;32;68228;-60
2022/09/23 16:54:32;;;;;;;5.87;3.20;;;;;;;;;;4403651;32;66891;-61
2022/09/23 16:57:18;;;;;;;3.70;2.67;;;;;;;;;;4403674;32;71421;-61
2022/09/23 17:06:18;;;;;;;8.30;3.17;;;;;;;;;;4417619;32;66727;-60
2022/09/23 17:09:05;;;;;;;5.07;2.65;;;;;;;;;;4393365;32;71880;-60
2022/09/23 17:12:12;;;;;;;6.70;3.28;;;;;;;;;;4403434;32;65989;-60
2022/09/23 17:14:59;;;;;;;6.10;3.47;;;;;;;;;;4414841;32;67409;-60
2022/09/23 17:17:46;;;;;;;9.00;3.10;;;;;;;;;;4414219;32;59226;-60
2022/09/23 17:20:33;;;;;;;5.37;2.90;;;;;;;;;;4389354;32;70159;-60
2022/09/23 17:23:20;;;;;;;5.80;2.67;;;;;;;;;;4384476;32;69370;-61
2022/09/23 17:26:11;;;;;;;5.28;2.75;;;;;;;;;;4382077;32;67666;-61
2022/09/23 17:28:59;;;;;;;4.95;2.72;;;;;;;;;;4403408;32;59997;-61
2022/09/23 17:31:46;;;;;;;5.70;2.53;;;;;;;;;;4403391;32;69498;-60
2022/09/23 17:34:33;;;;;;;3.70;2.47;;;;;;;;;;4390211;32;69947;-61
2022/09/23 17:37:20;;;;;;;3.95;2.50;;;;;;;;;;4393082;32;67707;-61
2022/09/23 17:40:07;;;;;;;4.70;2.60;;;;;;;;;;4415319;32;71799;-60
2022/09/23 17:42:53;;;;;;;;;;;;;;;;;;4392781;32;65871;-60
2022/09/23 17:45:40;;;;;;;5.05;2.50;;;;;;;;;;4403321;32;67762;-60